sensor_id;sensor_type;location;lat;lon;timestamp;pressure;altitude;pressure_sealevel;temperature;humidity
45275;BME280;31019;43.780;25.948;2023-04-07T00:02:01;100869.94;;;3.83;100.00
45275;BME280;31019;43.780;25.948;2023-04-07T00:04:29;100864.41;;;3.94;100.00
45275;BME280;31019;43.780;25.948;2023-04-07T00:06:56;100867.28;;;3.83;100.00
45275;BME280;31019;43.780;25.948;2023-04-07T00:09:23;100867.16;;;3.84;100.00
45275;BME280;31019;43.780;25.948;2023-04-07T00:11:50;100869.25;;;3.81;100.00
45275;BME280;31019;43.780;25.948;2023-04-07T00:14:17;100868.47;;;3.88;100.00
45275;BME280;31019;43.780;25.948;2023-04-07T00:16:44;100866.34;;;3.92;100.00
45275;BME280;31019;43.780;25.948;2023-04-07T00:19:11;100869.94;;;3.83;100.00
45275;BME280;31019;43.780;25.948;2023-04-07T00:21:39;100871.38;;;3.77;100.00
45275;BME280;31019;43.780;25.948;2023-04-07T00:24:06;100873.81;;;3.71;100.00
45275;BME280;31019;43.780;25.948;2023-04-07T00:26:33;100872.81;;;3.72;100.00
45275;BME280;31019;43.780;25.948;2023-04-07T00:29:00;100870.31;;;3.62;100.00
45275;BME280;31019;43.780;25.948;2023-04-07T00:31:27;100873.56;;;3.56;100.00
45275;BME280;31019;43.780;25.948;2023-04-07T00:33:54;100876.88;;;3.58;100.00
45275;BME280;31019;43.780;25.948;2023-04-07T00:36:22;100870.13;;;3.29;100.00
45275;BME280;31019;43.780;25.948;2023-04-07T00:38:50;100872.75;;;3.55;100.00
45275;BME280;31019;43.780;25.948;2023-04-07T00:41:17;100868.13;;;3.49;100.00
45275;BME280;31019;43.780;25.948;2023-04-07T00:43:44;100864.25;;;3.35;100.00
45275;BME280;31019;43.780;25.948;2023-04-07T00:46:11;100872.69;;;3.47;100.00
45275;BME280;31019;43.780;25.948;2023-04-07T00:48:38;100868.75;;;3.43;100.00
45275;BME280;31019;43.780;25.948;2023-04-07T00:51:05;100871.50;;;3.41;100.00
45275;BME280;31019;43.780;25.948;2023-04-07T00:53:32;100865.19;;;3.26;100.00
45275;BME280;31019;43.780;25.948;2023-04-07T00:56:01;100867.38;;;3.31;100.00
45275;BME280;31019;43.780;25.948;2023-04-07T00:58:28;100871.81;;;3.30;100.00
45275;BME280;31019;43.780;25.948;2023-04-07T01:01:05;100874.25;;;3.32;100.00
45275;BME280;31019;43.780;25.948;2023-04-07T01:03:35;100872.94;;;3.28;100.00
45275;BME280;31019;43.780;25.948;2023-04-07T01:06:07;100870.63;;;3.33;100.00
45275;BME280;31019;43.780;25.948;2023-04-07T01:08:40;100863.25;;;3.28;100.00
45275;BME280;31019;43.780;25.948;2023-04-07T01:11:15;100866.00;;;3.27;100.00
45275;BME280;31019;43.780;25.948;2023-04-07T01:13:49;100854.25;;;3.31;100.00
45275;BME280;31019;43.780;25.948;2023-04-07T01:16:21;100861.13;;;3.32;100.00
45275;BME280;31019;43.780;25.948;2023-04-07T01:18:52;100862.94;;;3.31;100.00
45275;BME280;31019;43.780;25.948;2023-04-07T01:21:21;100864.44;;;3.34;100.00
45275;BME280;31019;43.780;25.948;2023-04-07T01:24:04;100864.56;;;3.32;100.00
45275;BME280;31019;43.780;25.948;2023-04-07T01:26:33;100861.59;;;3.27;100.00
45275;BME280;31019;43.780;25.948;2023-04-07T01:32:09;100863.94;;;3.38;100.00
45275;BME280;31019;43.780;25.948;2023-04-07T01:34:36;100865.25;;;3.34;100.00
45275;BME280;31019;43.780;25.948;2023-04-07T01:37:04;100868.56;;;3.36;100.00
45275;BME280;31019;43.780;25.948;2023-04-07T01:39:32;100859.19;;;3.34;100.00
45275;BME280;31019;43.780;25.948;2023-04-07T01:42:00;100865.69;;;3.30;100.00
45275;BME280;31019;43.780;25.948;2023-04-07T01:44:31;100854.88;;;3.33;100.00
45275;BME280;31019;43.780;25.948;2023-04-07T01:46:59;100857.50;;;3.33;100.00
45275;BME280;31019;43.780;25.948;2023-04-07T01:49:29;100851.41;;;3.24;100.00
45275;BME280;31019;43.780;25.948;2023-04-07T01:51:56;100859.88;;;3.44;100.00
45275;BME280;31019;43.780;25.948;2023-04-07T01:54:24;100854.38;;;3.55;100.00
45275;BME280;31019;43.780;25.948;2023-04-07T01:56:52;100849.31;;;3.36;100.00
45275;BME280;31019;43.780;25.948;2023-04-07T01:59:19;100845.38;;;3.32;100.00
45275;BME280;31019;43.780;25.948;2023-04-07T02:01:46;100848.38;;;3.37;100.00
45275;BME280;31019;43.780;25.948;2023-04-07T02:04:19;100853.75;;;3.35;100.00
45275;BME280;31019;43.780;25.948;2023-04-07T02:06:53;100847.06;;;3.41;100.00
45275;BME280;31019;43.780;25.948;2023-04-07T02:09:23;100849.00;;;3.31;100.00
45275;BME280;31019;43.780;25.948;2023-04-07T02:11:54;100843.44;;;3.34;100.00
45275;BME280;31019;43.780;25.948;2023-04-07T02:14:24;100851.94;;;3.28;100.00
45275;BME280;31019;43.780;25.948;2023-04-07T02:16:52;100848.31;;;3.29;100.00
45275;BME280;31019;43.780;25.948;2023-04-07T02:19:19;100844.69;;;3.30;100.00
45275;BME280;31019;43.780;25.948;2023-04-07T02:21:47;100848.16;;;3.30;100.00
45275;BME280;31019;43.780;25.948;2023-04-07T02:24:20;100845.69;;;3.29;100.00
45275;BME280;31019;43.780;25.948;2023-04-07T02:26:47;100849.25;;;3.19;100.00
45275;BME280;31019;43.780;25.948;2023-04-07T02:29:14;100836.59;;;3.15;100.00
45275;BME280;31019;43.780;25.948;2023-04-07T02:31:41;100848.88;;;3.14;100.00
45275;BME280;31019;43.780;25.948;2023-04-07T02:34:07;100852.66;;;3.12;100.00
45275;BME280;31019;43.780;25.948;2023-04-07T02:36:34;100846.97;;;3.25;100.00
45275;BME280;31019;43.780;25.948;2023-04-07T02:39:01;100861.03;;;3.15;100.00
45275;BME280;31019;43.780;25.948;2023-04-07T02:41:30;100854.13;;;3.14;100.00
45275;BME280;31019;43.780;25.948;2023-04-07T02:43:57;100858.34;;;3.07;100.00
45275;BME280;31019;43.780;25.948;2023-04-07T02:46:23;100862.09;;;3.05;100.00
45275;BME280;31019;43.780;25.948;2023-04-07T02:48:50;100856.19;;;3.03;100.00
45275;BME280;31019;43.780;25.948;2023-04-07T02:51:17;100859.38;;;3.14;100.00
45275;BME280;31019;43.780;25.948;2023-04-07T02:53:44;100863.22;;;3.02;100.00
45275;BME280;31019;43.780;25.948;2023-04-07T02:56:11;100865.72;;;3.04;100.00
45275;BME280;31019;43.780;25.948;2023-04-07T02:58:39;100861.06;;;2.97;100.00
45275;BME280;31019;43.780;25.948;2023-04-07T03:01:06;100870.78;;;3.05;100.00
45275;BME280;31019;43.780;25.948;2023-04-07T03:03:33;100865.53;;;3.05;100.00
45275;BME280;31019;43.780;25.948;2023-04-07T03:06:00;100863.63;;;2.89;100.00
45275;BME280;31019;43.780;25.948;2023-04-07T03:08:30;100877.50;;;2.82;100.00
45275;BME280;31019;43.780;25.948;2023-04-07T03:10:57;100874.28;;;2.88;100.00
45275;BME280;31019;43.780;25.948;2023-04-07T03:13:26;100878.69;;;2.87;100.00
45275;BME280;31019;43.780;25.948;2023-04-07T03:15:56;100873.38;;;2.79;100.00
45275;BME280;31019;43.780;25.948;2023-04-07T03:18:25;100880.13;;;2.82;100.00
45275;BME280;31019;43.780;25.948;2023-04-07T03:20:52;100877.34;;;2.83;100.00
45275;BME280;31019;43.780;25.948;2023-04-07T03:23:20;100886.59;;;2.69;100.00
45275;BME280;31019;43.780;25.948;2023-04-07T03:25:48;100878.63;;;2.79;100.00
45275;BME280;31019;43.780;25.948;2023-04-07T03:28:15;100885.53;;;2.62;100.00
45275;BME280;31019;43.780;25.948;2023-04-07T03:30:42;100890.78;;;2.62;100.00
45275;BME280;31019;43.780;25.948;2023-04-07T03:33:10;100895.50;;;2.59;100.00
45275;BME280;31019;43.780;25.948;2023-04-07T03:35:37;100905.16;;;2.58;100.00
45275;BME280;31019;43.780;25.948;2023-04-07T03:38:04;100904.09;;;2.51;100.00
45275;BME280;31019;43.780;25.948;2023-04-07T03:40:30;100900.03;;;2.39;100.00
45275;BME280;31019;43.780;25.948;2023-04-07T03:42:58;100899.13;;;2.48;100.00
45275;BME280;31019;43.780;25.948;2023-04-07T03:52:46;100904.88;;;2.16;100.00
45275;BME280;31019;43.780;25.948;2023-04-07T03:55:13;100910.41;;;2.13;100.00
45275;BME280;31019;43.780;25.948;2023-04-07T04:00:14;100907.44;;;1.98;100.00
45275;BME280;31019;43.780;25.948;2023-04-07T04:01:11;100918.06;;;1.96;100.00
45275;BME280;31019;43.780;25.948;2023-04-07T04:03:38;100917.53;;;1.93;100.00
45275;BME280;31019;43.780;25.948;2023-04-07T04:06:08;100916.53;;;2.03;100.00
45275;BME280;31019;43.780;25.948;2023-04-07T04:08:38;100913.97;;;2.21;100.00
45275;BME280;31019;43.780;25.948;2023-04-07T04:11:05;100914.16;;;2.10;100.00
45275;BME280;31019;43.780;25.948;2023-04-07T04:13:38;100917.47;;;2.12;100.00
45275;BME280;31019;43.780;25.948;2023-04-07T04:16:06;100921.47;;;2.34;100.00
45275;BME280;31019;43.780;25.948;2023-04-07T04:18:33;100929.84;;;2.38;100.00
45275;BME280;31019;43.780;25.948;2023-04-07T04:21:03;100933.84;;;2.14;100.00
45275;BME280;31019;43.780;25.948;2023-04-07T04:23:30;100941.22;;;2.28;100.00
45275;BME280;31019;43.780;25.948;2023-04-07T04:25:59;100942.66;;;2.41;100.00
45275;BME280;31019;43.780;25.948;2023-04-07T04:28:28;100937.44;;;2.41;100.00
45275;BME280;31019;43.780;25.948;2023-04-07T04:30:55;100936.28;;;2.25;100.00
45275;BME280;31019;43.780;25.948;2023-04-07T04:33:31;100933.81;;;2.42;100.00
45275;BME280;31019;43.780;25.948;2023-04-07T04:35:58;100943.97;;;2.55;100.00
45275;BME280;31019;43.780;25.948;2023-04-07T04:38:25;100953.41;;;2.65;100.00
45275;BME280;31019;43.780;25.948;2023-04-07T04:40:52;100955.97;;;2.75;100.00
45275;BME280;31019;43.780;25.948;2023-04-07T04:43:23;100955.63;;;2.88;100.00
45275;BME280;31019;43.780;25.948;2023-04-07T04:45:58;100951.78;;;3.00;100.00
45275;BME280;31019;43.780;25.948;2023-04-07T04:48:25;100957.25;;;3.07;100.00
45275;BME280;31019;43.780;25.948;2023-04-07T04:50:52;100965.13;;;3.07;100.00
45275;BME280;31019;43.780;25.948;2023-04-07T04:53:19;100972.31;;;3.22;100.00
45275;BME280;31019;43.780;25.948;2023-04-07T04:55:46;100973.13;;;3.23;100.00
45275;BME280;31019;43.780;25.948;2023-04-07T04:58:16;100975.94;;;3.48;100.00
45275;BME280;31019;43.780;25.948;2023-04-07T05:00:45;100974.06;;;3.58;100.00
45275;BME280;31019;43.780;25.948;2023-04-07T09:50:09;101113.88;;;9.50;89.17
45275;BME280;31019;43.780;25.948;2023-04-07T09:52:49;101136.69;;;9.66;89.52
45275;BME280;31019;43.780;25.948;2023-04-07T09:55:19;101125.16;;;9.58;96.54
45275;BME280;31019;43.780;25.948;2023-04-07T09:57:48;101126.13;;;9.51;87.92
45275;BME280;31019;43.780;25.948;2023-04-07T10:00:15;101125.03;;;11.27;84.89
45275;BME280;31019;43.780;25.948;2023-04-07T10:02:42;101124.22;;;11.27;85.84
45275;BME280;31019;43.780;25.948;2023-04-07T10:05:11;101143.91;;;10.49;84.77
45275;BME280;31019;43.780;25.948;2023-04-07T10:07:38;101131.81;;;10.19;74.13
45275;BME280;31019;43.780;25.948;2023-04-07T10:10:06;101127.72;;;9.67;87.24
45275;BME280;31019;43.780;25.948;2023-04-07T10:12:34;101135.47;;;9.10;99.29
45275;BME280;31019;43.780;25.948;2023-04-07T10:15:03;101138.38;;;9.52;98.90
45275;BME280;31019;43.780;25.948;2023-04-07T10:17:30;101138.19;;;9.53;93.04
45275;BME280;31019;43.780;25.948;2023-04-07T10:19:58;101142.19;;;10.35;94.70
45275;BME280;31019;43.780;25.948;2023-04-07T10:22:28;101128.44;;;10.60;82.27
45275;BME280;31019;43.780;25.948;2023-04-07T10:24:59;101132.97;;;9.24;83.54
45275;BME280;31019;43.780;25.948;2023-04-07T10:27:30;101131.75;;;10.34;90.28
45275;BME280;31019;43.780;25.948;2023-04-07T10:29:59;101135.53;;;10.52;86.95
45275;BME280;31019;43.780;25.948;2023-04-07T10:32:28;101126.63;;;9.82;82.25
45275;BME280;31019;43.780;25.948;2023-04-07T10:34:56;101132.38;;;9.64;96.26
45275;BME280;31019;43.780;25.948;2023-04-07T10:37:24;101129.78;;;9.93;92.67
45275;BME280;31019;43.780;25.948;2023-04-07T10:40:28;101133.31;;;10.00;84.11
45275;BME280;31019;43.780;25.948;2023-04-07T10:42:55;101128.75;;;10.43;74.97
45275;BME280;31019;43.780;25.948;2023-04-07T10:45:53;101130.91;;;10.05;73.73
45275;BME280;31019;43.780;25.948;2023-04-07T10:48:21;101138.78;;;10.20;79.81
45275;BME280;31019;43.780;25.948;2023-04-07T10:51:12;101135.00;;;9.86;90.00
45275;BME280;31019;43.780;25.948;2023-04-07T11:00:14;101139.84;;;9.76;77.95
45275;BME280;31019;43.780;25.948;2023-04-07T11:02:41;101142.28;;;9.99;81.01
45275;BME280;31019;43.780;25.948;2023-04-07T11:05:19;101131.66;;;9.34;85.62
45275;BME280;31019;43.780;25.948;2023-04-07T11:07:49;101131.78;;;10.75;81.14
45275;BME280;31019;43.780;25.948;2023-04-07T11:10:16;101137.66;;;10.29;100.00
45275;BME280;31019;43.780;25.948;2023-04-07T11:12:56;101126.63;;;11.08;90.37
45275;BME280;31019;43.780;25.948;2023-04-07T11:15:25;101125.56;;;10.61;95.80
45275;BME280;31019;43.780;25.948;2023-04-07T11:18:12;101126.22;;;10.63;86.17
45275;BME280;31019;43.780;25.948;2023-04-07T11:20:56;101133.66;;;10.18;94.68
45275;BME280;31019;43.780;25.948;2023-04-07T11:23:24;101131.88;;;10.53;86.96
45275;BME280;31019;43.780;25.948;2023-04-07T11:25:58;101129.00;;;11.51;71.75
45275;BME280;31019;43.780;25.948;2023-04-07T11:28:26;101126.19;;;12.12;69.16
45275;BME280;31019;43.780;25.948;2023-04-07T11:30:56;101132.94;;;12.22;75.39
45275;BME280;31019;43.780;25.948;2023-04-07T11:33:25;101123.91;;;11.76;82.46
45275;BME280;31019;43.780;25.948;2023-04-07T11:35:57;101131.00;;;11.42;84.76
45275;BME280;31019;43.780;25.948;2023-04-07T11:38:26;101124.53;;;11.91;79.31
45275;BME280;31019;43.780;25.948;2023-04-07T11:40:54;101116.88;;;12.61;68.28
45275;BME280;31019;43.780;25.948;2023-04-07T11:43:23;101125.16;;;11.87;71.54
45275;BME280;31019;43.780;25.948;2023-04-07T11:46:05;101129.47;;;11.13;88.87
45275;BME280;31019;43.780;25.948;2023-04-07T11:48:33;101135.38;;;11.83;81.62
45275;BME280;31019;43.780;25.948;2023-04-07T11:51:01;101132.09;;;11.81;81.03
45275;BME280;31019;43.780;25.948;2023-04-07T11:53:30;101121.09;;;13.41;71.99
45275;BME280;31019;43.780;25.948;2023-04-07T11:56:01;101127.22;;;12.96;64.99
45275;BME280;31019;43.780;25.948;2023-04-07T11:58:28;101119.38;;;11.57;73.08
45275;BME280;31019;43.780;25.948;2023-04-07T12:00:56;101115.50;;;12.97;65.54
45275;BME280;31019;43.780;25.948;2023-04-07T12:03:24;101124.06;;;11.41;71.70
45275;BME280;31019;43.780;25.948;2023-04-07T12:05:51;101125.91;;;11.48;71.37
45275;BME280;31019;43.780;25.948;2023-04-07T12:08:18;101122.25;;;12.48;62.54
45275;BME280;31019;43.780;25.948;2023-04-07T12:10:46;101118.19;;;12.26;72.61
45275;BME280;31019;43.780;25.948;2023-04-07T12:13:13;101130.22;;;11.55;78.46
45275;BME280;31019;43.780;25.948;2023-04-07T12:15:40;101123.72;;;11.71;76.57
45275;BME280;31019;43.780;25.948;2023-04-07T12:18:06;101122.56;;;11.19;74.35
45275;BME280;31019;43.780;25.948;2023-04-07T12:20:35;101132.31;;;12.06;81.25
45275;BME280;31019;43.780;25.948;2023-04-07T12:23:02;101131.88;;;10.53;82.44
45275;BME280;31019;43.780;25.948;2023-04-07T12:25:28;101131.03;;;12.49;79.73
45275;BME280;31019;43.780;25.948;2023-04-07T12:27:55;101133.94;;;11.74;73.75
45275;BME280;31019;43.780;25.948;2023-04-07T12:30:22;101134.63;;;11.21;74.27
45275;BME280;31019;43.780;25.948;2023-04-07T12:32:50;101135.81;;;12.00;69.17
45275;BME280;31019;43.780;25.948;2023-04-07T12:35:17;101127.59;;;11.00;76.80
45275;BME280;31019;43.780;25.948;2023-04-07T12:37:45;101133.09;;;11.74;72.97
45275;BME280;31019;43.780;25.948;2023-04-07T12:40:12;101139.69;;;11.10;81.57
45275;BME280;31019;43.780;25.948;2023-04-07T12:42:40;101144.84;;;11.18;74.13
45275;BME280;31019;43.780;25.948;2023-04-07T12:45:07;101142.97;;;11.05;75.63
45275;BME280;31019;43.780;25.948;2023-04-07T12:47:34;101148.03;;;10.59;75.22
45275;BME280;31019;43.780;25.948;2023-04-07T12:50:01;101148.63;;;10.26;91.90
45275;BME280;31019;43.780;25.948;2023-04-07T12:52:28;101145.09;;;10.75;100.00
45275;BME280;31019;43.780;25.948;2023-04-07T12:54:58;101144.69;;;10.78;99.31
45275;BME280;31019;43.780;25.948;2023-04-07T12:57:25;101138.59;;;10.84;99.30
45275;BME280;31019;43.780;25.948;2023-04-07T12:59:52;101149.59;;;10.81;100.00
45275;BME280;31019;43.780;25.948;2023-04-07T13:02:18;101142.47;;;10.47;96.26
45275;BME280;31019;43.780;25.948;2023-04-07T13:04:45;101152.59;;;10.37;98.11
45275;BME280;31019;43.780;25.948;2023-04-07T13:07:13;101159.81;;;10.21;95.79
45275;BME280;31019;43.780;25.948;2023-04-07T13:09:40;101150.53;;;11.02;100.00
45275;BME280;31019;43.780;25.948;2023-04-07T13:12:09;101157.19;;;10.84;92.17
45275;BME280;31019;43.780;25.948;2023-04-07T13:14:37;101160.50;;;10.93;95.28
45275;BME280;31019;43.780;25.948;2023-04-07T13:17:04;101162.13;;;11.55;96.70
45275;BME280;31019;43.780;25.948;2023-04-07T13:19:31;101162.00;;;11.09;100.00
45275;BME280;31019;43.780;25.948;2023-04-07T13:21:58;101171.84;;;10.80;100.00
45275;BME280;31019;43.780;25.948;2023-04-07T13:24:25;101175.91;;;10.69;100.00
45275;BME280;31019;43.780;25.948;2023-04-07T13:26:52;101175.31;;;11.15;100.00
45275;BME280;31019;43.780;25.948;2023-04-07T13:29:22;101180.84;;;10.79;100.00
45275;BME280;31019;43.780;25.948;2023-04-07T13:31:49;101183.44;;;10.66;100.00
45275;BME280;31019;43.780;25.948;2023-04-07T13:34:15;101177.19;;;10.80;100.00
45275;BME280;31019;43.780;25.948;2023-04-07T13:36:43;101184.13;;;10.74;100.00
45275;BME280;31019;43.780;25.948;2023-04-07T13:39:10;101184.69;;;11.05;100.00
45275;BME280;31019;43.780;25.948;2023-04-07T13:41:37;101188.22;;;10.49;100.00
45275;BME280;31019;43.780;25.948;2023-04-07T13:44:04;101194.22;;;10.58;100.00
45275;BME280;31019;43.780;25.948;2023-04-07T13:46:32;101199.81;;;10.69;100.00
45275;BME280;31019;43.780;25.948;2023-04-07T13:48:59;101196.72;;;10.66;100.00
45275;BME280;31019;43.780;25.948;2023-04-07T13:51:26;101194.69;;;10.68;100.00
45275;BME280;31019;43.780;25.948;2023-04-07T13:53:53;101201.97;;;10.31;100.00
45275;BME280;31019;43.780;25.948;2023-04-07T13:56:20;101203.94;;;10.01;100.00
45275;BME280;31019;43.780;25.948;2023-04-07T13:58:47;101205.69;;;9.51;100.00
45275;BME280;31019;43.780;25.948;2023-04-07T14:01:14;101209.00;;;9.74;100.00
45275;BME280;31019;43.780;25.948;2023-04-07T14:03:43;101207.59;;;9.57;100.00
45275;BME280;31019;43.780;25.948;2023-04-07T14:06:10;101216.13;;;9.74;100.00
45275;BME280;31019;43.780;25.948;2023-04-07T14:08:37;101212.28;;;9.98;100.00
45275;BME280;31019;43.780;25.948;2023-04-07T14:11:04;101217.50;;;9.70;100.00
45275;BME280;31019;43.780;25.948;2023-04-07T14:13:31;101216.72;;;9.54;100.00
45275;BME280;31019;43.780;25.948;2023-04-07T14:15:58;101220.91;;;9.27;100.00
45275;BME280;31019;43.780;25.948;2023-04-07T14:18:25;101226.94;;;9.21;100.00
45275;BME280;31019;43.780;25.948;2023-04-07T14:20:53;101228.94;;;9.04;100.00
45275;BME280;31019;43.780;25.948;2023-04-07T14:23:20;101230.03;;;9.10;100.00
45275;BME280;31019;43.780;25.948;2023-04-07T14:25:47;101226.44;;;9.47;100.00
45275;BME280;31019;43.780;25.948;2023-04-07T14:28:14;101241.53;;;9.32;100.00
45275;BME280;31019;43.780;25.948;2023-04-07T14:30:41;101234.44;;;9.03;100.00
45275;BME280;31019;43.780;25.948;2023-04-07T14:33:09;101243.38;;;8.72;100.00
45275;BME280;31019;43.780;25.948;2023-04-07T14:35:36;101240.63;;;8.95;100.00
45275;BME280;31019;43.780;25.948;2023-04-07T14:38:05;101247.84;;;8.86;100.00
45275;BME280;31019;43.780;25.948;2023-04-07T14:40:32;101249.28;;;8.74;100.00
45275;BME280;31019;43.780;25.948;2023-04-07T14:42:59;101244.13;;;8.81;100.00
45275;BME280;31019;43.780;25.948;2023-04-07T14:45:26;101246.19;;;8.70;100.00
45275;BME280;31019;43.780;25.948;2023-04-07T14:47:53;101254.50;;;8.67;100.00
45275;BME280;31019;43.780;25.948;2023-04-07T14:50:20;101263.00;;;8.92;100.00
45275;BME280;31019;43.780;25.948;2023-04-07T14:52:48;101247.97;;;8.93;100.00
45275;BME280;31019;43.780;25.948;2023-04-07T14:55:16;101269.13;;;8.63;100.00
45275;BME280;31019;43.780;25.948;2023-04-07T14:57:43;101259.16;;;8.80;100.00
45275;BME280;31019;43.780;25.948;2023-04-07T15:00:11;101267.13;;;8.65;100.00
45275;BME280;31019;43.780;25.948;2023-04-07T15:02:38;101268.75;;;8.66;100.00
45275;BME280;31019;43.780;25.948;2023-04-07T15:05:06;101275.66;;;8.53;100.00
45275;BME280;31019;43.780;25.948;2023-04-07T15:07:33;101277.19;;;8.85;100.00
45275;BME280;31019;43.780;25.948;2023-04-07T15:10:00;101281.56;;;8.40;100.00
45275;BME280;31019;43.780;25.948;2023-04-07T15:12:29;101295.13;;;8.60;100.00
45275;BME280;31019;43.780;25.948;2023-04-07T15:14:57;101299.09;;;8.10;100.00
45275;BME280;31019;43.780;25.948;2023-04-07T15:17:24;101285.63;;;8.19;100.00
45275;BME280;31019;43.780;25.948;2023-04-07T15:19:51;101294.94;;;8.15;100.00
45275;BME280;31019;43.780;25.948;2023-04-07T15:22:18;101291.63;;;8.13;100.00
45275;BME280;31019;43.780;25.948;2023-04-07T15:24:45;101288.06;;;7.75;100.00
45275;BME280;31019;43.780;25.948;2023-04-07T15:27:12;101298.94;;;8.11;100.00
45275;BME280;31019;43.780;25.948;2023-04-07T15:29:40;101294.38;;;8.20;100.00
45275;BME280;31019;43.780;25.948;2023-04-07T15:32:07;101303.03;;;8.14;100.00
45275;BME280;31019;43.780;25.948;2023-04-07T15:34:34;101299.34;;;8.00;100.00
45275;BME280;31019;43.780;25.948;2023-04-07T15:37:01;101298.25;;;7.86;100.00
45275;BME280;31019;43.780;25.948;2023-04-07T15:39:29;101297.63;;;7.84;100.00
45275;BME280;31019;43.780;25.948;2023-04-07T15:41:55;101297.41;;;7.86;100.00
45275;BME280;31019;43.780;25.948;2023-04-07T15:44:22;101302.06;;;8.15;100.00
45275;BME280;31019;43.780;25.948;2023-04-07T15:46:51;101293.84;;;7.78;100.00
45275;BME280;31019;43.780;25.948;2023-04-07T15:49:18;101308.66;;;7.88;100.00
45275;BME280;31019;43.780;25.948;2023-04-07T15:51:46;101316.97;;;7.76;100.00
45275;BME280;31019;43.780;25.948;2023-04-07T15:54:13;101307.31;;;7.92;100.00
45275;BME280;31019;43.780;25.948;2023-04-07T15:56:40;101318.44;;;7.79;100.00
45275;BME280;31019;43.780;25.948;2023-04-07T15:59:07;101316.75;;;7.55;100.00
45275;BME280;31019;43.780;25.948;2023-04-07T16:01:38;101316.22;;;7.99;100.00
45275;BME280;31019;43.780;25.948;2023-04-07T16:04:08;101319.84;;;7.58;100.00
45275;BME280;31019;43.780;25.948;2023-04-07T16:06:34;101323.06;;;7.38;100.00
45275;BME280;31019;43.780;25.948;2023-04-07T16:09:03;101314.88;;;7.95;100.00
45275;BME280;31019;43.780;25.948;2023-04-07T16:11:30;101327.75;;;7.75;100.00
45275;BME280;31019;43.780;25.948;2023-04-07T16:13:57;101334.09;;;7.57;100.00
45275;BME280;31019;43.780;25.948;2023-04-07T16:16:24;101335.59;;;7.52;100.00
45275;BME280;31019;43.780;25.948;2023-04-07T16:18:50;101332.47;;;7.88;100.00
45275;BME280;31019;43.780;25.948;2023-04-07T16:21:19;101342.97;;;7.65;100.00
45275;BME280;31019;43.780;25.948;2023-04-07T16:23:46;101347.66;;;7.46;100.00
45275;BME280;31019;43.780;25.948;2023-04-07T16:26:13;101346.84;;;7.46;100.00
45275;BME280;31019;43.780;25.948;2023-04-07T16:28:40;101345.47;;;7.58;100.00
45275;BME280;31019;43.780;25.948;2023-04-07T16:31:08;101354.56;;;7.55;100.00
45275;BME280;31019;43.780;25.948;2023-04-07T16:33:36;101355.25;;;7.49;100.00
45275;BME280;31019;43.780;25.948;2023-04-07T16:36:05;101367.09;;;7.70;100.00
45275;BME280;31019;43.780;25.948;2023-04-07T16:38:33;101359.59;;;7.26;100.00
45275;BME280;31019;43.780;25.948;2023-04-07T16:41:00;101367.50;;;7.34;100.00
45275;BME280;31019;43.780;25.948;2023-04-07T16:43:27;101359.56;;;7.42;100.00
45275;BME280;31019;43.780;25.948;2023-04-07T16:45:54;101371.78;;;7.35;100.00
45275;BME280;31019;43.780;25.948;2023-04-07T16:48:24;101371.03;;;7.18;100.00
45275;BME280;31019;43.780;25.948;2023-04-07T16:50:54;101368.03;;;7.05;100.00
45275;BME280;31019;43.780;25.948;2023-04-07T16:53:21;101376.97;;;7.04;100.00
45275;BME280;31019;43.780;25.948;2023-04-07T16:55:49;101381.09;;;7.06;100.00
45275;BME280;31019;43.780;25.948;2023-04-07T16:58:16;101382.25;;;6.96;100.00
45275;BME280;31019;43.780;25.948;2023-04-07T17:00:44;101385.53;;;7.30;100.00
45275;BME280;31019;43.780;25.948;2023-04-07T17:03:12;101389.88;;;6.91;100.00
45275;BME280;31019;43.780;25.948;2023-04-07T17:05:39;101391.00;;;6.88;100.00
45275;BME280;31019;43.780;25.948;2023-04-07T17:08:06;101388.34;;;7.21;100.00
45275;BME280;31019;43.780;25.948;2023-04-07T17:10:32;101390.50;;;6.93;100.00
45275;BME280;31019;43.780;25.948;2023-04-07T17:13:01;101398.44;;;6.84;100.00
45275;BME280;31019;43.780;25.948;2023-04-07T17:15:28;101404.88;;;6.82;100.00
45275;BME280;31019;43.780;25.948;2023-04-07T17:17:55;101403.38;;;6.79;100.00
45275;BME280;31019;43.780;25.948;2023-04-07T17:20:22;101402.06;;;6.75;100.00
45275;BME280;31019;43.780;25.948;2023-04-07T17:22:49;101404.53;;;6.85;100.00
45275;BME280;31019;43.780;25.948;2023-04-07T17:25:17;101407.03;;;6.78;100.00
45275;BME280;31019;43.780;25.948;2023-04-07T17:27:44;101415.44;;;6.74;100.00
45275;BME280;31019;43.780;25.948;2023-04-07T17:30:14;101428.13;;;6.70;100.00
45275;BME280;31019;43.780;25.948;2023-04-07T17:32:42;101417.22;;;6.65;100.00
45275;BME280;31019;43.780;25.948;2023-04-07T17:35:09;101420.84;;;6.56;100.00
45275;BME280;31019;43.780;25.948;2023-04-07T17:37:36;101426.78;;;6.58;100.00
45275;BME280;31019;43.780;25.948;2023-04-07T17:40:04;101427.94;;;6.55;100.00
45275;BME280;31019;43.780;25.948;2023-04-07T17:42:31;101431.06;;;6.51;100.00
45275;BME280;31019;43.780;25.948;2023-04-07T17:44:58;101440.13;;;6.48;100.00
45275;BME280;31019;43.780;25.948;2023-04-07T17:47:28;101447.56;;;6.53;100.00
45275;BME280;31019;43.780;25.948;2023-04-07T17:49:55;101450.69;;;6.48;100.00
45275;BME280;31019;43.780;25.948;2023-04-07T17:52:22;101444.94;;;6.61;100.00